This is the latest recevied weather packets stored in our database for station/object EA1EME-3. If no packets are shown the sender has not sent any weather packets the latest 10 day(s).
| Time | Temp. | Humidity | Pressure | Rain* | Wind** | Luminosity | Snow |
|---|---|---|---|---|---|---|---|
| 1787838632 | 20° C | 67% | 1009 hPa | - | - | - | - |
| 1787837430 | 22.22° C | 58% | 1008 hPa | - | - | - | - |
| 1787836228 | 22.22° C | 57% | 1008 hPa | - | - | - | - |
| 1787835026 | 22.78° C | 56% | 1008 hPa | - | - | - | - |
| 1787833824 | 22.22° C | 57% | 1008 hPa | - | - | - | - |
| 1787832622 | 22.22° C | 57% | 1007 hPa | - | - | - | - |
| 1787831420 | 22.22° C | 58% | 1008 hPa | - | - | - | - |
| 1787830218 | 22.22° C | 57% | 1008 hPa | - | - | - | - |
| 1787829016 | 22.22° C | 57% | 1008 hPa | - | - | - | - |
| 1787827815 | 22.22° C | 56% | 1008 hPa | - | - | - | - |
| 1787826613 | 22.22° C | 56% | 1008 hPa | - | - | - | - |
| 1787825410 | 22.22° C | 56% | 1008 hPa | - | - | - | - |
| 1787824209 | 22.22° C | 56% | 1008 hPa | - | - | - | - |
| 1787823006 | 21.67° C | 57% | 1008 hPa | - | - | - | - |
| 1787821805 | 21.67° C | 59% | 1008 hPa | - | - | - | - |
| 1787820603 | 21.11° C | 63% | 1008 hPa | - | - | - | - |
| 1787819401 | 20.56° C | 63% | 1008 hPa | - | - | - | - |
| 1787818199 | 20.56° C | 60% | 1009 hPa | - | - | - | - |
| 1787816997 | 20° C | 62% | 1008 hPa | - | - | - | - |
| 1787815795 | 19.44° C | 62% | 1009 hPa | - | - | - | - |
| 1787814593 | 18.33° C | 64% | 1009 hPa | - | - | - | - |
| 1787813391 | 17.78° C | 67% | 1009 hPa | - | - | - | - |
| 1787812189 | 17.22° C | 66% | 1009 hPa | - | - | - | - |
| 1787810987 | 17.22° C | 68% | 1009 hPa | - | - | - | - |
| 1787809785 | 16.67° C | 66% | 1008 hPa | - | - | - | - |
* Rain since midnight (hover to see other rain measurements)
** Current wind speed in m/s (hover to see current wind gust speed)